Decoded Metar for CYKL (SCHEFFERVILLE in QC, CANADA) (IATA:YKL) | Meteo·Mobile Aviation Weather
aviador You're here:

CYKL Decoded Metar

SCHEFFERVILLE in QC, CANADA
Report Time2018-10-22 09:00:00
UTC Time2018-10-22 09:46:15
Flight Rules vfr VFR
Wind010° at 12 Gusting to 18 kt
W.Decomp.*RWY 36: 10.2 kt HW 6.4 kt RCW
W.Rank010° ranks 25
Current wind is above 010° avg. (6.4)
Visibility9999 m
Phenomena:N/A
Clouds:Few 014 Hf
Overcast 075 Hf
Expected CloudBase > 800 ft AGL from Temp-Dew spread
Ceiling7,500 ft
Temp-5°C (ISA -17)
Dew Point-7°C (86% RH)
AAT-12.1°C
QNH1006 hPa
Density Alt-36 ft
Elevation1,709 ft
Report Wrong Elevation
Raw Report
CYKL 220900Z AUTO 01012G18KT 9SM FEW014 OVC075 M05/M07 A2970 RMK
SLP094=

Extra information for CYKL:More info

Metar Taf Metar & Taf Last 4 Metars F.Rules Stats Wind Profile Meteogram Temp Stats Airport Information Weather charts Add Link Nearby VenuesMetar ALERT Operation Metar Decoded Social comments